Time;durP1;ratioP1;P1;durP2;ratioP2;P2;SDS_P1;SDS_P2;PMS_P1;PMS_P2;Temp;Humidity;BMP_temperature;BMP_pressure;BME280_temperature;BME280_humidity;BME280_pressure;Samples;Min_cycle;Max_cycle;Signal;HPM_P1;HPM_P2
2022/05/31 00:00:28;;;;;;;;;;;19.00;55.90;;;;;;5062889;28;19916;-58
2022/05/31 00:02:54;;;;;;;;;;;19.00;55.90;;;;;;5082065;28;19924;-55
2022/05/31 00:05:19;;;;;;;;;;;19.00;56.50;;;;;;5064089;28;19916;-57
2022/05/31 00:07:45;;;;;;;;;;;19.00;55.90;;;;;;5046869;28;19920;-57
2022/05/31 00:10:11;;;;;;;;;;;19.00;55.80;;;;;;5081503;28;19927;-53
2022/05/31 00:12:36;;;;;;;;;;;19.00;55.80;;;;;;5081837;28;20150;-56
2022/05/31 00:15:02;;;;;;;;;;;19.00;55.80;;;;;;5081566;28;19920;-54
2022/05/31 00:17:28;;;;;;;;;;;19.00;55.80;;;;;;5082060;28;19920;-54
2022/05/31 00:19:53;;;;;;;;;;;19.00;55.80;;;;;;5080899;28;19913;-57
2022/05/31 00:22:20;;;;;;;;;;;19.00;55.80;;;;;;5080906;28;19924;-52
2022/05/31 00:24:46;;;;;;;;;;;19.00;55.80;;;;;;5081049;28;20361;-58
2022/05/31 00:27:12;;;;;;;;;;;19.00;55.70;;;;;;5082155;28;19923;-58
2022/05/31 00:29:38;;;;;;;;;;;19.00;55.80;;;;;;5081654;28;19958;-58
2022/05/31 00:32:04;;;;;;;;;;;19.00;55.80;;;;;;5082115;28;19932;-55
2022/05/31 00:34:30;;;;;;;;;;;19.00;55.80;;;;;;5081253;28;20003;-55
2022/05/31 00:36:56;;;;;;;;;;;18.90;55.70;;;;;;5062870;28;20476;-54
2022/05/31 00:39:21;;;;;;;;;;;18.90;55.70;;;;;;5081050;28;19915;-57
2022/05/31 00:42:00;;;;;;;;;;;18.90;55.70;;;;;;5081092;28;20391;-56
2022/05/31 00:44:28;;;;;;;;;;;18.90;55.70;;;;;;5080264;28;19926;-52
2022/05/31 00:46:55;;;;;;;;;;;18.90;55.70;;;;;;5081094;28;19918;-54
2022/05/31 00:49:34;;;;;;;;;;;18.90;55.60;;;;;;5079692;28;20196;-53
2022/05/31 00:52:06;;;;;;;;;;;18.90;55.60;;;;;;5080246;28;20006;-54
2022/05/31 00:54:32;;;;;;;;;;;18.90;55.70;;;;;;5062758;28;19995;-55
2022/05/31 00:56:58;;;;;;;;;;;18.90;55.60;;;;;;5062723;28;19920;-57
2022/05/31 00:59:27;;;;;;;;;;;18.90;55.60;;;;;;5061688;28;20280;-58
2022/05/31 01:01:52;;;;;;;;;;;18.90;55.60;;;;;;5061895;28;20418;-55
2022/05/31 01:04:19;;;;;;;;;;;18.90;55.80;;;;;;5079830;28;19912;-58
2022/05/31 01:06:44;;;;;;;;;;;18.90;55.60;;;;;;5061876;28;20093;-53
2022/05/31 01:09:10;;;;;;;;;;;18.90;55.60;;;;;;5079804;28;20042;-53
2022/05/31 01:11:39;;;;;;;;;;;18.90;55.60;;;;;;5081242;28;19939;-55
2022/05/31 01:14:05;;;;;;;;;;;18.90;55.60;;;;;;5062180;28;20032;-55
2022/05/31 01:16:30;;;;;;;;;;;18.90;55.60;;;;;;5079959;28;20203;-55
2022/05/31 01:18:56;;;;;;;;;;;18.90;55.60;;;;;;5079046;28;20165;-54
2022/05/31 01:21:21;;;;;;;;;;;18.90;55.60;;;;;;5080405;28;19916;-58
2022/05/31 01:23:49;;;;;;;;;;;18.90;55.60;;;;;;5080140;28;19923;-56
2022/05/31 01:26:23;;;;;;;;;;;18.90;55.50;;;;;;5062279;28;19916;-55
2022/05/31 01:28:49;;;;;;;;;;;18.80;55.50;;;;;;5078636;28;20303;-54
2022/05/31 01:31:19;;;;;;;;;;;18.90;55.50;;;;;;5079781;28;20162;-53
2022/05/31 01:33:46;;;;;;;;;;;18.90;55.50;;;;;;5079660;28;20011;-53
2022/05/31 01:36:18;;;;;;;;;;;18.90;55.50;;;;;;5079903;28;20412;-55
2022/05/31 01:38:48;;;;;;;;;;;18.90;55.50;;;;;;5041135;28;19951;-59
2022/05/31 01:41:19;;;;;;;;;;;18.80;55.40;;;;;;5042598;28;19952;-58
2022/05/31 01:43:45;;;;;;;;;;;18.80;55.50;;;;;;5041313;28;20007;-57
2022/05/31 01:46:12;;;;;;;;;;;18.80;55.50;;;;;;5059840;28;20349;-57
2022/05/31 01:48:37;;;;;;;;;;;18.80;55.50;;;;;;5059907;28;19939;-55
2022/05/31 01:51:03;;;;;;;;;;;18.80;55.50;;;;;;5061124;28;20372;-55
2022/05/31 01:53:28;;;;;;;;;;;18.80;55.40;;;;;;5079863;28;19920;-56
2022/05/31 01:55:54;;;;;;;;;;;18.80;55.40;;;;;;5061066;28;19969;-57
2022/05/31 01:58:20;;;;;;;;;;;18.80;55.40;;;;;;5067187;28;19917;-53
2022/05/31 02:00:45;;;;;;;;;;;18.80;55.40;;;;;;5066561;28;19920;-52
2022/05/31 02:03:11;;;;;;;;;;;18.80;55.40;;;;;;5064945;28;19916;-55
2022/05/31 02:05:42;;;;;;;;;;;18.80;55.40;;;;;;5084066;28;19947;-52
2022/05/31 02:08:08;;;;;;;;;;;18.80;55.40;;;;;;5081474;28;19920;-55
2022/05/31 02:10:33;;;;;;;;;;;18.80;55.40;;;;;;5079881;28;20519;-53
2022/05/31 02:12:59;;;;;;;;;;;18.80;55.40;;;;;;5080918;28;20369;-55
2022/05/31 02:15:24;;;;;;;;;;;18.70;55.30;;;;;;5063238;28;19912;-52
2022/05/31 02:17:50;;;;;;;;;;;18.80;55.40;;;;;;5080101;28;19955;-52
2022/05/31 02:20:15;;;;;;;;;;;18.70;55.30;;;;;;5079262;28;19998;-59
2022/05/31 02:22:41;;;;;;;;;;;18.70;55.40;;;;;;5079916;28;20302;-56
2022/05/31 02:25:07;;;;;;;;;;;18.80;55.40;;;;;;5080061;28;20339;-57
2022/05/31 02:27:32;;;;;;;;;;;18.70;55.30;;;;;;5079549;28;19983;-55
2022/05/31 02:29:58;;;;;;;;;;;18.70;55.30;;;;;;5079556;28;20049;-57
2022/05/31 02:32:23;;;;;;;;;;;18.80;55.40;;;;;;5079055;28;20288;-56
2022/05/31 02:34:49;;;;;;;;;;;18.70;55.30;;;;;;5079176;28;20331;-56
2022/05/31 02:37:15;;;;;;;;;;;18.70;55.20;;;;;;5077369;28;19916;-54
2022/05/31 02:39:40;;;;;;;;;;;18.70;55.30;;;;;;5078837;28;19985;-57
2022/05/31 02:42:06;;;;;;;;;;;18.70;55.30;;;;;;5079852;28;19920;-56
2022/05/31 02:44:31;;;;;;;;;;;18.70;55.30;;;;;;5078896;28;19913;-56
2022/05/31 02:46:57;;;;;;;;;;;18.70;55.30;;;;;;5078846;28;20111;-55
2022/05/31 02:49:22;;;;;;;;;;;18.70;55.30;;;;;;5078942;28;20410;-56
2022/05/31 02:51:48;;;;;;;;;;;18.70;55.30;;;;;;5079799;28;19978;-57
2022/05/31 02:54:13;;;;;;;;;;;18.70;55.20;;;;;;5078556;28;19916;-55
2022/05/31 02:56:39;;;;;;;;;;;18.70;55.30;;;;;;5078945;28;19916;-59
2022/05/31 02:59:05;;;;;;;;;;;18.70;55.30;;;;;;5079049;28;19923;-55
2022/05/31 03:01:32;;;;;;;;;;;18.70;55.20;;;;;;5078207;28;19924;-54
2022/05/31 03:03:57;;;;;;;;;;;18.70;55.20;;;;;;5060177;28;19916;-59
2022/05/31 03:06:23;;;;;;;;;;;18.70;55.20;;;;;;5079116;28;19919;-57
2022/05/31 03:08:48;;;;;;;;;;;18.70;55.30;;;;;;5078257;28;20251;-57
2022/05/31 03:11:23;;;;;;;;;;;18.70;55.20;;;;;;5079297;28;19916;-55
2022/05/31 03:13:49;;;;;;;;;;;18.70;55.30;;;;;;5079405;28;19912;-57
2022/05/31 03:16:14;;;;;;;;;;;18.70;55.30;;;;;;5060999;28;19916;-56
2022/05/31 03:18:41;;;;;;;;;;;18.70;55.20;;;;;;5078306;28;19927;-56
2022/05/31 03:21:08;;;;;;;;;;;18.70;55.20;;;;;;5063405;28;19918;-57
2022/05/31 03:23:35;;;;;;;;;;;18.70;55.20;;;;;;5083017;28;20395;-54
2022/05/31 03:26:01;;;;;;;;;;;18.60;55.20;;;;;;5064605;28;19912;-54
2022/05/31 03:28:27;;;;;;;;;;;18.60;55.10;;;;;;5064233;28;19918;-58
2022/05/31 03:30:52;;;;;;;;;;;18.60;55.20;;;;;;5082964;28;19916;-52
2022/05/31 03:33:18;;;;;;;;;;;18.60;55.20;;;;;;5075187;28;19966;-52
2022/05/31 03:35:43;;;;;;;;;;;18.60;55.20;;;;;;5084001;28;19912;-52
2022/05/31 03:38:09;;;;;;;;;;;18.60;55.20;;;;;;5084736;28;20416;-53
2022/05/31 03:43:18;;;;;;;;;;;18.70;55.20;;;;;;5083504;28;20443;-57
2022/05/31 03:45:44;;;;;;;;;;;18.60;55.20;;;;;;5062837;28;19917;-57
2022/05/31 03:48:10;;;;;;;;;;;18.70;55.20;;;;;;5062995;28;20286;-57
2022/05/31 03:50:35;;;;;;;;;;;18.60;55.10;;;;;;5081294;28;20007;-56
2022/05/31 03:53:01;;;;;;;;;;;18.60;55.00;;;;;;5082788;28;19999;-52
2022/05/31 03:55:27;;;;;;;;;;;18.60;55.10;;;;;;5082871;28;20343;-54
2022/05/31 03:57:52;;;;;;;;;;;18.60;55.10;;;;;;5082912;28;19912;-57
2022/05/31 04:00:18;;;;;;;;;;;18.60;55.10;;;;;;5080775;28;20386;-52
2022/05/31 04:02:43;;;;;;;;;;;18.60;55.00;;;;;;5082362;28;20076;-52
2022/05/31 04:05:09;;;;;;;;;;;18.60;55.10;;;;;;5082682;28;20259;-54
2022/05/31 04:07:35;;;;;;;;;;;18.60;55.00;;;;;;5082359;28;19991;-55
2022/05/31 04:10:04;;;;;;;;;;;18.60;55.10;;;;;;5078993;28;20392;-55
2022/05/31 04:12:30;;;;;;;;;;;18.60;55.10;;;;;;5074354;28;20243;-55
2022/05/31 04:14:56;;;;;;;;;;;18.60;55.10;;;;;;5081087;28;19922;-54
2022/05/31 04:17:21;;;;;;;;;;;18.60;55.00;;;;;;5082007;28;19913;-57
2022/05/31 04:19:47;;;;;;;;;;;18.60;55.10;;;;;;5083172;28;19916;-56
2022/05/31 04:22:12;;;;;;;;;;;18.60;55.10;;;;;;5081921;28;20333;-59
2022/05/31 04:24:38;;;;;;;;;;;18.60;55.10;;;;;;5081969;28;19966;-56
2022/05/31 04:27:03;;;;;;;;;;;18.50;55.10;;;;;;5081396;28;19923;-53
2022/05/31 04:29:29;;;;;;;;;;;18.60;55.10;;;;;;5080719;28;19912;-56
2022/05/31 04:31:54;;;;;;;;;;;18.50;55.10;;;;;;5080759;28;19989;-52
2022/05/31 04:34:19;;;;;;;;;;;18.60;55.10;;;;;;5080179;28;19920;-53
2022/05/31 04:36:45;;;;;;;;;;;18.60;55.10;;;;;;5080884;28;20358;-54
2022/05/31 04:39:10;;;;;;;;;;;18.70;55.20;;;;;;5061614;28;19925;-55
2022/05/31 04:41:36;;;;;;;;;;;18.70;55.20;;;;;;5081581;28;20286;-52
2022/05/31 04:44:04;;;;;;;;;;;18.70;55.10;;;;;;5080510;28;19917;-55
2022/05/31 04:46:30;;;;;;;;;;;18.70;55.10;;;;;;5081726;28;19948;-57
2022/05/31 04:48:56;;;;;;;;;;;18.70;55.20;;;;;;5079441;28;19912;-57
2022/05/31 04:51:22;;;;;;;;;;;18.70;55.30;;;;;;5066381;28;19916;-57
2022/05/31 04:53:47;;;;;;;;;;;18.70;55.40;;;;;;5084585;28;19912;-54
2022/05/31 04:56:14;;;;;;;;;;;18.70;55.50;;;;;;5084544;28;19916;-55
2022/05/31 04:58:39;;;;;;;;;;;18.70;55.40;;;;;;5082397;28;19916;-57
2022/05/31 05:01:06;;;;;;;;;;;18.70;55.50;;;;;;5065065;28;19920;-57
2022/05/31 05:03:35;;;;;;;;;;;18.70;55.50;;;;;;5081888;28;19931;-59
2022/05/31 05:06:04;;;;;;;;;;;18.70;55.50;;;;;;5081779;28;19926;-56
2022/05/31 05:08:30;;;;;;;;;;;18.70;55.50;;;;;;5079858;28;20000;-59
2022/05/31 05:10:55;;;;;;;;;;;18.80;55.30;;;;;;5081238;28;19944;-54
2022/05/31 05:13:21;;;;;;;;;;;18.80;55.40;;;;;;5081917;28;20632;-55
2022/05/31 05:15:46;;;;;;;;;;;18.80;55.40;;;;;;5081421;28;19923;-52
2022/05/31 05:18:12;;;;;;;;;;;18.80;55.40;;;;;;5062748;28;19938;-57
2022/05/31 05:20:38;;;;;;;;;;;18.80;55.40;;;;;;5080411;28;19954;-55
2022/05/31 05:23:04;;;;;;;;;;;18.80;55.50;;;;;;5080461;28;19923;-55
2022/05/31 05:25:30;;;;;;;;;;;18.80;55.80;;;;;;5079919;28;20353;-55
2022/05/31 05:27:55;;;;;;;;;;;18.80;55.60;;;;;;5079160;28;20003;-54
2022/05/31 05:30:39;;;;;;;;;;;18.80;55.60;;;;;;5079466;28;19948;-54
2022/05/31 05:33:04;;;;;;;;;;;18.90;55.80;;;;;;5080470;28;20333;-58
2022/05/31 05:35:30;;;;;;;;;;;18.90;55.80;;;;;;5082480;28;19927;-57
2022/05/31 05:37:55;;;;;;;;;;;18.80;55.70;;;;;;5083750;28;19947;-52
2022/05/31 05:40:21;;;;;;;;;;;18.80;55.80;;;;;;5080421;28;19916;-54
2022/05/31 05:42:46;;;;;;;;;;;18.80;55.80;;;;;;5082113;28;20359;-52
2022/05/31 05:45:12;;;;;;;;;;;18.90;55.80;;;;;;5081329;28;19913;-52
2022/05/31 05:47:37;;;;;;;;;;;18.90;55.80;;;;;;5081835;28;19969;-53
2022/05/31 05:50:03;;;;;;;;;;;18.90;55.70;;;;;;5062462;28;19977;-52
2022/05/31 05:52:29;;;;;;;;;;;18.90;55.80;;;;;;5080000;28;19913;-52
2022/05/31 05:54:54;;;;;;;;;;;18.90;55.80;;;;;;5080478;28;19939;-53
2022/05/31 05:57:19;;;;;;;;;;;18.90;55.80;;;;;;5080458;28;19926;-56
2022/05/31 05:59:45;;;;;;;;;;;18.90;55.80;;;;;;5079889;28;20622;-52
2022/05/31 06:02:13;;;;;;;;;;;18.90;55.80;;;;;;5080547;28;20092;-61
2022/05/31 06:04:39;;;;;;;;;;;18.90;55.90;;;;;;5082325;28;19916;-54
2022/05/31 06:07:08;;;;;;;;;;;18.90;55.90;;;;;;5062325;28;19927;-52
2022/05/31 06:09:33;;;;;;;;;;;18.90;56.00;;;;;;5079644;28;20301;-58
2022/05/31 06:12:00;;;;;;;;;;;18.90;56.00;;;;;;5080378;28;19916;-55
2022/05/31 06:14:27;;;;;;;;;;;18.90;56.10;;;;;;5080010;28;19919;-57
2022/05/31 06:16:54;;;;;;;;;;;18.90;56.00;;;;;;5061353;28;19916;-55
2022/05/31 06:19:20;;;;;;;;;;;18.90;56.10;;;;;;5060709;28;20003;-58
2022/05/31 06:21:46;;;;;;;;;;;18.90;56.10;;;;;;5060959;28;19916;-56
2022/05/31 06:24:12;;;;;;;;;;;18.90;56.20;;;;;;5060717;28;19943;-53
2022/05/31 06:26:37;;;;;;;;;;;18.90;56.10;;;;;;5079811;28;19915;-54
2022/05/31 06:29:03;;;;;;;;;;;18.90;56.10;;;;;;5078800;28;19926;-56
2022/05/31 06:31:29;;;;;;;;;;;18.90;55.80;;;;;;5084928;28;19916;-52
2022/05/31 06:33:54;;;;;;;;;;;18.90;56.00;;;;;;5082701;28;20452;-57
2022/05/31 06:36:20;;;;;;;;;;;18.90;55.80;;;;;;5083223;28;19977;-52
2022/05/31 06:38:45;;;;;;;;;;;18.90;56.00;;;;;;5082670;28;19974;-57
2022/05/31 06:41:10;;;;;;;;;;;18.90;55.90;;;;;;5080378;28;19954;-59
2022/05/31 06:43:36;;;;;;;;;;;18.90;56.00;;;;;;5082785;28;20298;-53
2022/05/31 06:46:05;;;;;;;;;;;18.90;55.80;;;;;;5080032;28;19916;-57
2022/05/31 06:48:30;;;;;;;;;;;18.90;55.90;;;;;;5078870;28;20133;-55
2022/05/31 06:50:56;;;;;;;;;;;18.80;55.80;;;;;;5080098;28;20274;-52
2022/05/31 06:58:49;;;;;;;;;;;18.90;55.80;;;;;;5081953;28;20079;-54
2022/05/31 07:01:15;;;;;;;;;;;18.90;55.70;;;;;;5083023;28;19928;-53
2022/05/31 07:03:41;;;;;;;;;;;18.90;55.80;;;;;;5083527;28;19923;-53
2022/05/31 07:06:06;;;;;;;;;;;18.80;55.70;;;;;;5083013;28;21509;-52
2022/05/31 07:08:31;;;;;;;;;;;18.90;55.80;;;;;;5081534;28;19916;-53
2022/05/31 07:10:57;;;;;;;;;;;18.80;55.70;;;;;;5064910;28;20285;-57
2022/05/31 07:13:23;;;;;;;;;;;18.90;55.80;;;;;;5083316;28;20009;-57
2022/05/31 07:15:51;;;;;;;;;;;18.90;56.10;;;;;;5082899;28;19916;-52
2022/05/31 07:18:17;;;;;;;;;;;18.90;55.80;;;;;;5083181;28;19916;-54
2022/05/31 07:20:44;;;;;;;;;;;18.80;55.90;;;;;;5082126;28;19923;-53
2022/05/31 07:23:10;;;;;;;;;;;18.80;56.10;;;;;;5082541;28;19916;-56
2022/05/31 07:25:35;;;;;;;;;;;18.80;55.90;;;;;;5083372;28;19988;-52
2022/05/31 07:28:01;;;;;;;;;;;18.90;56.00;;;;;;5082707;28;19924;-55
2022/05/31 07:30:26;;;;;;;;;;;18.80;55.70;;;;;;5081666;28;19963;-57
2022/05/31 07:32:51;;;;;;;;;;;18.90;55.80;;;;;;5082761;28;20324;-51
2022/05/31 07:35:17;;;;;;;;;;;18.80;55.60;;;;;;5082230;28;19920;-51
2022/05/31 07:37:42;;;;;;;;;;;18.90;55.60;;;;;;5081881;28;19994;-53
2022/05/31 07:40:08;;;;;;;;;;;18.80;55.60;;;;;;5082798;28;19982;-54
2022/05/31 07:42:33;;;;;;;;;;;18.80;55.60;;;;;;5078709;28;19920;-51
2022/05/31 07:44:59;;;;;;;;;;;18.90;55.60;;;;;;5082152;28;20002;-54
2022/05/31 07:47:24;;;;;;;;;;;18.80;55.50;;;;;;5086284;28;20318;-57
2022/05/31 07:49:50;;;;;;;;;;;18.90;55.60;;;;;;5057798;28;19917;-55
2022/05/31 07:52:16;;;;;;;;;;;18.80;55.60;;;;;;5065837;28;19965;-56
2022/05/31 07:54:41;;;;;;;;;;;18.90;55.60;;;;;;5065490;28;20023;-54
2022/05/31 07:57:06;;;;;;;;;;;18.90;55.80;;;;;;5065083;28;20361;-56
2022/05/31 07:59:32;;;;;;;;;;;18.90;55.60;;;;;;5063767;28;19924;-54
2022/05/31 08:01:58;;;;;;;;;;;18.80;55.60;;;;;;5082551;28;19931;-52
2022/05/31 08:04:23;;;;;;;;;;;18.80;55.60;;;;;;5082419;28;20498;-57
2022/05/31 08:06:49;;;;;;;;;;;18.90;55.50;;;;;;5071138;28;20418;-58
2022/05/31 08:09:14;;;;;;;;;;;18.80;55.50;;;;;;5079551;28;20153;-55
2022/05/31 08:11:40;;;;;;;;;;;18.80;55.50;;;;;;5082289;28;19965;-58
2022/05/31 08:14:05;;;;;;;;;;;18.80;55.60;;;;;;5081424;28;19944;-58
2022/05/31 08:16:31;;;;;;;;;;;18.80;55.70;;;;;;5082032;28;20363;-56
2022/05/31 08:18:56;;;;;;;;;;;18.80;54.70;;;;;;5080446;28;19912;-55
2022/05/31 08:21:27;;;;;;;;;;;18.70;55.30;;;;;;5081294;28;19959;-58
2022/05/31 08:23:56;;;;;;;;;;;18.80;55.40;;;;;;5081205;28;19939;-55
2022/05/31 08:26:21;;;;;;;;;;;18.80;55.40;;;;;;5081738;28;19923;-53
2022/05/31 08:28:46;;;;;;;;;;;18.80;55.20;;;;;;5079908;28;19916;-57
2022/05/31 08:31:12;;;;;;;;;;;18.80;55.40;;;;;;5082313;28;19958;-57
2022/05/31 08:33:38;;;;;;;;;;;18.80;55.00;;;;;;5080818;28;19969;-55
2022/05/31 08:36:04;;;;;;;;;;;18.80;55.30;;;;;;5062933;28;19923;-57
2022/05/31 08:38:29;;;;;;;;;;;18.80;55.30;;;;;;5080184;28;19916;-55
2022/05/31 08:41:21;;;;;;;;;;;18.70;54.70;;;;;;5063542;28;19916;-52
2022/05/31 08:43:46;;;;;;;;;;;18.70;55.20;;;;;;5074710;28;19919;-54
2022/05/31 08:46:15;;;;;;;;;;;18.80;55.40;;;;;;5081734;28;19983;-54
2022/05/31 08:48:49;;;;;;;;;;;18.70;53.40;;;;;;5079146;28;20337;-54
2022/05/31 08:56:58;;;;;;;;;;;18.70;52.80;;;;;;5064930;28;19965;-54
2022/05/31 08:59:26;;;;;;;;;;;18.60;52.60;;;;;;5061396;28;19916;-52
2022/05/31 09:01:53;;;;;;;;;;;18.60;54.60;;;;;;5080610;28;20424;-54
2022/05/31 09:04:22;;;;;;;;;;;18.70;54.70;;;;;;5079877;28;19916;-54
2022/05/31 09:06:55;;;;;;;;;;;18.60;52.00;;;;;;5063082;28;20019;-55
2022/05/31 09:09:24;;;;;;;;;;;18.60;54.10;;;;;;5061789;28;19919;-57
2022/05/31 09:11:55;;;;;;;;;;;18.70;54.50;;;;;;5080811;28;19920;-54
2022/05/31 09:14:40;;;;;;;;;;;18.70;53.70;;;;;;5062281;28;20455;-54
2022/05/31 09:17:12;;;;;;;;;;;18.70;54.40;;;;;;5080384;28;19948;-54
2022/05/31 09:19:44;;;;;;;;;;;18.80;54.60;;;;;;5078671;28;19962;-57
2022/05/31 09:22:10;;;;;;;;;;;18.70;54.60;;;;;;5061482;28;21375;-58
2022/05/31 09:24:42;;;;;;;;;;;18.80;54.10;;;;;;5079829;28;20015;-57
2022/05/31 09:27:07;;;;;;;;;;;18.70;54.50;;;;;;5079984;28;19917;-52
2022/05/31 09:29:53;;;;;;;;;;;18.70;54.60;;;;;;5079258;28;19923;-51
2022/05/31 09:32:34;;;;;;;;;;;18.70;54.60;;;;;;5010589;28;19915;-56
2022/05/31 09:35:07;;;;;;;;;;;18.80;54.70;;;;;;5079687;28;19916;-52
2022/05/31 09:38:05;;;;;;;;;;;18.80;54.40;;;;;;5062113;28;19916;-59
2022/05/31 09:40:36;;;;;;;;;;;18.70;50.80;;;;;;5013067;28;19931;-56
2022/05/31 09:43:04;;;;;;;;;;;18.70;54.10;;;;;;5059487;28;19973;-52
2022/05/31 09:45:31;;;;;;;;;;;18.70;54.40;;;;;;5069606;28;20077;-57
2022/05/31 09:47:57;;;;;;;;;;;18.70;54.10;;;;;;5045535;28;19990;-58
2022/05/31 09:50:23;;;;;;;;;;;18.70;52.40;;;;;;5047542;28;19994;-56
2022/05/31 09:52:56;;;;;;;;;;;18.60;52.00;;;;;;5070380;28;19916;-60
2022/05/31 09:58:14;;;;;;;;;;;18.70;54.10;;;;;;5064115;28;19919;-52
2022/05/31 10:00:56;;;;;;;;;;;18.70;54.00;;;;;;5079174;28;20707;-56
2022/05/31 10:03:21;;;;;;;;;;;18.70;53.70;;;;;;5069097;28;19973;-58
2022/05/31 10:05:48;;;;;;;;;;;18.70;52.10;;;;;;5061869;28;20126;-54
2022/05/31 10:08:30;;;;;;;;;;;18.70;52.10;;;;;;5061792;28;19935;-58
2022/05/31 10:10:55;;;;;;;;;;;18.70;53.90;;;;;;5078136;28;21349;-54
2022/05/31 10:13:40;;;;;;;;;;;18.70;54.20;;;;;;5079670;28;19916;-57
2022/05/31 10:16:10;;;;;;;;;;;18.70;54.20;;;;;;5079281;28;20057;-54
2022/05/31 10:18:44;;;;;;;;;;;18.70;50.90;;;;;;5078405;28;20024;-53
2022/05/31 10:21:11;;;;;;;;;;;18.70;52.90;;;;;;5061105;28;20274;-57
2022/05/31 10:23:41;;;;;;;;;;;18.70;53.30;;;;;;5079087;28;19952;-55
2022/05/31 10:26:06;;;;;;;;;;;18.70;52.30;;;;;;5061698;28;19916;-53
2022/05/31 10:28:35;;;;;;;;;;;18.70;52.70;;;;;;5078259;28;20577;-56
2022/05/31 10:31:23;;;;;;;;;;;18.70;53.70;;;;;;5060155;28;19987;-52
2022/05/31 10:33:54;;;;;;;;;;;18.80;53.90;;;;;;5062556;28;20355;-55
2022/05/31 10:36:20;;;;;;;;;;;18.70;53.70;;;;;;5079323;28;19916;-55
2022/05/31 10:38:46;;;;;;;;;;;18.70;53.90;;;;;;5079018;28;19924;-57
2022/05/31 10:41:17;;;;;;;;;;;18.80;52.00;;;;;;5065319;28;20446;-57
2022/05/31 10:43:52;;;;;;;;;;;18.80;53.30;;;;;;5063389;28;19916;-53
2022/05/31 10:46:25;;;;;;;;;;;18.80;53.40;;;;;;5051305;28;19916;-52
2022/05/31 10:48:51;;;;;;;;;;;18.70;53.90;;;;;;5059892;28;19924;-55
2022/05/31 10:51:32;;;;;;;;;;;18.80;54.10;;;;;;5062048;28;20029;-56
2022/05/31 10:54:10;;;;;;;;;;;18.80;54.10;;;;;;5061720;28;19919;-56
2022/05/31 10:56:37;;;;;;;;;;;18.80;53.90;;;;;;5079315;28;19912;-51
2022/05/31 10:59:05;;;;;;;;;;;18.80;52.70;;;;;;5059464;28;20332;-53
2022/05/31 11:01:40;;;;;;;;;;;18.80;53.90;;;;;;5095201;22;19928;-57
2022/05/31 11:04:10;;;;;;;;;;;18.80;52.50;;;;;;5050006;28;19920;-55
2022/05/31 11:06:38;;;;;;;;;;;18.80;50.30;;;;;;5049013;28;20328;-53
2022/05/31 11:12:27;;;;;;;;;;;18.80;52.20;;;;;;5074158;28;19969;-53
2022/05/31 11:14:56;;;;;;;;;;;18.80;50.90;;;;;;5052633;28;19922;-55
2022/05/31 11:17:24;;;;;;;;;;;18.80;52.60;;;;;;5060078;28;20287;-57
2022/05/31 11:19:59;;;;;;;;;;;18.80;51.10;;;;;;5077881;28;20436;-56
2022/05/31 11:22:28;;;;;;;;;;;18.80;52.40;;;;;;5078705;28;20030;-55
2022/05/31 11:25:12;;;;;;;;;;;18.80;50.80;;;;;;5043945;28;19940;-57
2022/05/31 11:27:58;;;;;;;;;;;18.80;52.10;;;;;;5057447;28;19913;-56
2022/05/31 11:30:38;;;;;;;;;;;18.80;52.30;;;;;;5073834;28;19923;-57
2022/05/31 11:33:09;;;;;;;;;;;18.80;51.30;;;;;;5059973;28;19970;-57
2022/05/31 11:35:53;;;;;;;;;;;18.80;51.30;;;;;;5078098;28;20005;-56
2022/05/31 11:38:21;;;;;;;;;;;18.80;52.70;;;;;;5078523;28;19912;-52
2022/05/31 11:41:06;;;;;;;;;;;18.80;52.00;;;;;;5078531;28;19916;-58
2022/05/31 11:43:45;;;;;;;;;;;18.80;52.30;;;;;;5080425;28;19966;-55
2022/05/31 11:46:29;;;;;;;;;;;18.80;50.70;;;;;;5063773;28;19920;-56
2022/05/31 11:49:04;;;;;;;;;;;18.90;51.00;;;;;;5060634;28;19920;-56
2022/05/31 11:51:32;;;;;;;;;;;18.90;52.30;;;;;;5063219;28;19916;-55
2022/05/31 11:54:08;;;;;;;;;;;18.80;53.00;;;;;;5082236;28;19912;-56
2022/05/31 11:56:53;;;;;;;;;;;18.80;52.30;;;;;;5063509;28;19916;-55
2022/05/31 11:59:22;;;;;;;;;;;18.80;51.00;;;;;;5080943;28;20292;-55
2022/05/31 12:01:49;;;;;;;;;;;18.90;51.90;;;;;;5070590;28;20007;-58
2022/05/31 12:04:41;;;;;;;;;;;18.90;49.80;;;;;;5063676;28;19912;-55
2022/05/31 12:07:09;;;;;;;;;;;18.90;49.40;;;;;;5071709;28;19993;-53
2022/05/31 12:09:34;;;;;;;;;;;18.90;51.80;;;;;;5060783;28;20468;-57
2022/05/31 12:12:02;;;;;;;;;;;18.90;50.20;;;;;;5060951;28;19920;-53
2022/05/31 12:14:27;;;;;;;;;;;18.90;48.60;;;;;;5042949;28;20518;-54
2022/05/31 12:16:53;;;;;;;;;;;18.80;51.30;;;;;;5061669;28;19917;-56
2022/05/31 12:19:27;;;;;;;;;;;18.80;51.80;;;;;;5063482;28;19935;-54
2022/05/31 12:21:52;;;;;;;;;;;18.90;50.50;;;;;;5080969;28;20029;-55
2022/05/31 12:24:21;;;;;;;;;;;18.90;51.20;;;;;;5080194;28;19912;-53
2022/05/31 12:26:54;;;;;;;;;;;18.90;51.70;;;;;;5059405;28;20034;-52
2022/05/31 12:29:33;;;;;;;;;;;18.90;52.20;;;;;;5031828;28;19916;-53
2022/05/31 12:32:17;;;;;;;;;;;18.90;51.10;;;;;;5061263;28;21709;-52
2022/05/31 12:34:43;;;;;;;;;;;18.80;49.40;;;;;;5075737;28;20815;-53
2022/05/31 12:37:09;;;;;;;;;;;18.90;51.50;;;;;;5081189;28;19976;-55
2022/05/31 12:39:35;;;;;;;;;;;18.90;50.90;;;;;;5081175;28;19920;-53
2022/05/31 12:42:15;;;;;;;;;;;18.90;50.20;;;;;;5081428;28;20416;-52
2022/05/31 12:44:47;;;;;;;;;;;18.90;50.20;;;;;;5063121;28;19989;-57
2022/05/31 12:47:17;;;;;;;;;;;18.80;49.30;;;;;;5080836;28;19974;-52
2022/05/31 12:50:02;;;;;;;;;;;18.90;49.60;;;;;;5063092;28;19923;-57
2022/05/31 12:55:20;;;;;;;;;;;18.90;49.90;;;;;;5079642;28;20374;-56
2022/05/31 13:00:33;;;;;;;;;;;18.90;49.20;;;;;;5063498;28;20541;-56
2022/05/31 13:02:58;;;;;;;;;;;18.90;49.90;;;;;;5079661;28;19920;-55
2022/05/31 13:05:28;;;;;;;;;;;18.90;49.80;;;;;;5080037;28;19943;-52
2022/05/31 13:08:09;;;;;;;;;;;18.90;50.50;;;;;;5080269;28;19930;-55
2022/05/31 13:10:36;;;;;;;;;;;18.90;49.50;;;;;;5079370;28;19912;-56
2022/05/31 13:21:15;;;;;;;;;;;18.90;48.40;;;;;;5080497;28;19965;-54
2022/05/31 13:23:46;;;;;;;;;;;18.90;50.10;;;;;;5061894;28;19932;-55
2022/05/31 13:26:15;;;;;;;;;;;18.90;48.30;;;;;;5062689;28;20327;-53
2022/05/31 13:28:42;;;;;;;;;;;18.80;49.90;;;;;;5060536;28;20458;-52
2022/05/31 13:31:11;;;;;;;;;;;18.90;50.20;;;;;;5080452;28;19916;-55
2022/05/31 13:33:37;;;;;;;;;;;18.90;49.70;;;;;;5080234;28;20622;-54
2022/05/31 13:36:16;;;;;;;;;;;18.80;49.80;;;;;;5080040;28;19963;-54
2022/05/31 13:38:42;;;;;;;;;;;18.90;48.90;;;;;;5060190;28;20252;-52
2022/05/31 13:41:09;;;;;;;;;;;18.90;50.00;;;;;;5079575;28;20533;-52
2022/05/31 13:43:43;;;;;;;;;;;18.80;50.30;;;;;;5061667;28;20054;-52
2022/05/31 13:46:14;;;;;;;;;;;18.90;50.70;;;;;;5061943;28;19912;-52
2022/05/31 13:48:41;;;;;;;;;;;18.90;49.80;;;;;;5056124;28;20586;-56
2022/05/31 13:51:12;;;;;;;;;;;18.90;50.60;;;;;;5061891;28;20447;-54
2022/05/31 13:53:42;;;;;;;;;;;18.90;49.80;;;;;;5079129;28;20372;-56
2022/05/31 13:56:08;;;;;;;;;;;18.90;51.10;;;;;;5079910;28;19954;-56
2022/05/31 13:58:34;;;;;;;;;;;19.00;51.60;;;;;;5066220;28;20029;-54
2022/05/31 14:01:00;;;;;;;;;;;19.00;51.10;;;;;;5062939;28;19942;-54
2022/05/31 14:03:29;;;;;;;;;;;19.00;50.30;;;;;;5059084;28;19920;-53
2022/05/31 14:06:02;;;;;;;;;;;19.00;49.60;;;;;;5054993;28;20475;-54
2022/05/31 14:08:46;;;;;;;;;;;19.00;50.00;;;;;;5078854;28;20395;-57
2022/05/31 14:11:22;;;;;;;;;;;19.00;50.30;;;;;;5049212;28;23949;-53
2022/05/31 14:13:49;;;;;;;;;;;19.00;49.70;;;;;;5058125;28;20869;-54
2022/05/31 14:16:19;;;;;;;;;;;19.00;49.80;;;;;;5041538;28;20529;-56
2022/05/31 14:18:51;;;;;;;;;;;19.00;48.10;;;;;;5040803;28;19956;-57
2022/05/31 14:21:18;;;;;;;;;;;19.10;49.50;;;;;;5061786;28;19951;-57
2022/05/31 14:23:44;;;;;;;;;;;19.00;48.90;;;;;;5079196;28;19923;-57
2022/05/31 14:26:12;;;;;;;;;;;19.00;49.20;;;;;;5061109;28;21361;-54
2022/05/31 14:28:38;;;;;;;;;;;19.10;49.50;;;;;;5078980;28;19923;-53
2022/05/31 14:31:04;;;;;;;;;;;19.00;48.20;;;;;;5076336;28;19962;-55
2022/05/31 14:33:31;;;;;;;;;;;19.00;50.00;;;;;;5061574;28;19916;-56
2022/05/31 14:35:57;;;;;;;;;;;18.90;50.20;;;;;;5079734;28;19973;-56
2022/05/31 14:38:23;;;;;;;;;;;18.90;49.50;;;;;;5060098;28;20535;-54
2022/05/31 14:40:50;;;;;;;;;;;19.00;49.40;;;;;;5060901;28;19938;-54
2022/05/31 14:43:26;;;;;;;;;;;19.00;49.70;;;;;;5060783;28;19928;-55
2022/05/31 14:45:52;;;;;;;;;;;19.00;49.60;;;;;;5078373;28;21420;-57
2022/05/31 14:48:36;;;;;;;;;;;19.00;49.40;;;;;;5078570;28;20548;-57
2022/05/31 14:51:02;;;;;;;;;;;19.10;49.10;;;;;;5078199;28;19916;-52
2022/05/31 14:53:34;;;;;;;;;;;19.10;49.60;;;;;;5060782;28;20004;-54
2022/05/31 14:56:00;;;;;;;;;;;19.10;49.10;;;;;;5078563;28;19912;-55